createdAt,value
2023-04-07T00:01:29.181Z,25.90
2023-04-07T00:11:35.640Z,27.70
2023-04-07T00:21:42.470Z,26.20
2023-04-07T00:31:48.899Z,26.40
2023-04-07T00:41:55.410Z,27.40
2023-04-07T00:52:02.765Z,25.80
2023-04-07T01:02:18.199Z,24.50
2023-04-07T01:12:34.577Z,23.10
2023-04-07T01:22:47.687Z,22.80
2023-04-07T01:32:54.944Z,22.90
2023-04-07T01:43:02.187Z,20.60
2023-04-07T01:53:09.029Z,21.20
2023-04-07T02:03:22.824Z,21.80
2023-04-07T02:13:30.463Z,19.70
2023-04-07T02:23:37.482Z,20.70
2023-04-07T02:33:43.953Z,20.90
2023-04-07T02:43:50.508Z,20.80
2023-04-07T02:53:57.289Z,21.10
2023-04-07T03:04:04.012Z,20.40
2023-04-07T03:14:10.617Z,19.10
2023-04-07T03:24:17.219Z,22.50
2023-04-07T03:34:23.692Z,22.30
2023-04-07T03:44:30.189Z,22.90
2023-04-07T03:54:36.898Z,24.00
2023-04-07T04:04:43.781Z,26.00
2023-04-07T04:14:50.226Z,21.70
2023-04-07T04:24:56.871Z,22.20
2023-04-07T04:35:03.513Z,23.40
2023-04-07T04:45:10.414Z,25.20
2023-04-07T04:55:17.443Z,23.30
2023-04-07T05:05:23.942Z,24.00
2023-04-07T05:15:30.488Z,24.40
2023-04-07T05:25:37.227Z,25.20
2023-04-07T05:35:46.144Z,24.70
2023-04-07T05:45:52.806Z,23.60
2023-04-07T05:56:00.388Z,25.20
2023-04-07T06:06:07.256Z,24.90
2023-04-07T06:16:13.807Z,25.20
2023-04-07T06:26:20.306Z,24.60
2023-04-07T06:36:27.072Z,24.40
2023-04-07T06:46:33.713Z,24.50
2023-04-07T06:56:40.541Z,21.80
2023-04-07T07:06:47.074Z,22.70
2023-04-07T07:16:53.550Z,22.60
2023-04-07T07:26:59.997Z,22.80
2023-04-07T07:37:06.678Z,19.70
2023-04-07T07:47:13.902Z,18.40
2023-04-07T07:57:20.401Z,19.10
2023-04-07T08:07:26.999Z,16.80
2023-04-07T08:17:33.532Z,18.90
2023-04-07T08:27:40.133Z,20.70
2023-04-07T08:37:47.060Z,19.30
2023-04-07T08:47:58.440Z,19.70
2023-04-07T08:58:05.193Z,22.20
2023-04-07T09:08:11.719Z,17.10
2023-04-07T09:18:18.387Z,16.00
2023-04-07T09:28:25.073Z,17.00
2023-04-07T09:38:35.908Z,17.80
2023-04-07T09:48:42.877Z,18.80
2023-04-07T09:58:52.776Z,19.30
2023-04-07T10:08:59.640Z,18.30
2023-04-07T10:29:31.262Z,19.60
2023-04-07T10:39:39.110Z,18.40
2023-04-07T10:50:14.130Z,20.90
2023-04-07T11:00:21.050Z,17.90
2023-04-07T11:10:27.615Z,19.00
2023-04-07T11:20:46.082Z,26.90
2023-04-07T11:30:55.446Z,24.10
2023-04-07T11:41:12.481Z,23.90
2023-04-07T11:51:20.656Z,21.30
2023-04-07T12:01:41.887Z,22.80
2023-04-07T12:11:51.592Z,25.80
2023-04-07T12:21:58.468Z,20.10
2023-04-07T12:32:06.148Z,19.30
2023-04-07T12:42:13.371Z,18.00
2023-04-07T12:52:19.841Z,16.70
2023-04-07T13:02:26.451Z,19.90
2023-04-07T13:12:32.996Z,22.80
2023-04-07T13:22:48.802Z,20.80
2023-04-07T13:32:58.799Z,21.80
2023-04-07T13:43:05.509Z,16.20
2023-04-07T13:53:12.104Z,15.00
2023-04-07T14:03:18.639Z,14.90
2023-04-07T14:13:25.145Z,13.90
2023-04-07T14:23:37.162Z,16.10
2023-04-07T14:33:45.215Z,17.30
2023-04-07T14:43:57.128Z,18.80
2023-04-07T14:54:03.731Z,17.10
2023-04-07T15:04:10.313Z,15.50
2023-04-07T15:14:16.871Z,16.80
2023-04-07T15:24:23.674Z,18.00
2023-04-07T15:34:30.170Z,15.70
2023-04-07T15:44:40.902Z,22.80
2023-04-07T15:54:47.372Z,39.20
2023-04-07T16:04:53.934Z,35.70
2023-04-07T16:15:00.436Z,27.40
2023-04-07T16:25:07.721Z,24.60
2023-04-07T16:35:15.864Z,22.90
2023-04-07T16:45:22.362Z,19.50
2023-04-07T16:55:30.129Z,22.40
2023-04-07T17:05:36.788Z,26.70
2023-04-07T17:15:43.305Z,31.60
2023-04-07T17:25:52.870Z,30.70
2023-04-07T17:35:59.613Z,31.90
2023-04-07T17:46:06.307Z,41.00
2023-04-07T17:56:13.929Z,42.50
2023-04-07T18:06:20.579Z,30.50
2023-04-07T18:16:27.187Z,32.50
2023-04-07T18:26:33.797Z,30.40
2023-04-07T18:36:42.620Z,30.50
2023-04-07T18:46:49.157Z,30.80
2023-04-07T18:56:55.986Z,41.80
2023-04-07T19:07:02.926Z,34.90
2023-04-07T19:17:09.403Z,31.00
2023-04-07T19:27:16.144Z,31.10
2023-04-07T19:37:22.612Z,31.30
2023-04-07T19:47:29.764Z,30.40
2023-04-07T19:57:36.318Z,31.60
2023-04-07T20:07:43.065Z,31.10
2023-04-07T20:17:49.645Z,30.00
2023-04-07T20:27:56.159Z,29.60
2023-04-07T20:38:04.088Z,36.40
2023-04-07T20:48:10.570Z,30.70
2023-04-07T20:58:19.000Z,28.30
2023-04-07T21:08:25.971Z,28.30
2023-04-07T21:18:33.364Z,27.10
2023-04-07T21:28:41.775Z,28.90
2023-04-07T21:38:49.007Z,32.70
2023-04-07T21:48:55.832Z,31.70
2023-04-07T21:59:02.878Z,38.30
2023-04-07T22:09:12.368Z,39.40
2023-04-07T22:19:19.121Z,35.20
2023-04-07T22:29:25.643Z,29.30
2023-04-07T22:39:32.261Z,23.60
2023-04-07T22:49:38.725Z,22.50
2023-04-07T22:59:45.295Z,31.80
2023-04-07T23:09:51.744Z,39.10
2023-04-07T23:19:58.342Z,40.20
2023-04-07T23:30:05.855Z,42.50
2023-04-07T23:40:12.756Z,41.90
2023-04-07T23:50:19.269Z,35.70
